sensor_id;sensor_type;location;lat;lon;timestamp;pressure;altitude;pressure_sealevel;temperature;humidity
12785;BME280;6456;42.680;23.260;2023-04-23T00:01:55;94605.28;;;9.82;100.00
12785;BME280;6456;42.680;23.260;2023-04-23T00:04:24;94602.44;;;9.83;100.00
12785;BME280;6456;42.680;23.260;2023-04-23T00:06:53;94611.09;;;9.90;100.00
12785;BME280;6456;42.680;23.260;2023-04-23T00:09:21;94616.53;;;9.95;100.00
12785;BME280;6456;42.680;23.260;2023-04-23T00:11:49;94524.81;;;9.30;100.00
12785;BME280;6456;42.680;23.260;2023-04-23T00:14:16;94628.09;;;9.94;100.00
12785;BME280;6456;42.680;23.260;2023-04-23T00:16:45;94597.00;;;9.78;100.00
12785;BME280;6456;42.680;23.260;2023-04-23T00:19:12;94623.25;;;9.91;100.00
12785;BME280;6456;42.680;23.260;2023-04-23T00:21:39;94567.41;;;9.51;100.00
12785;BME280;6456;42.680;23.260;2023-04-23T00:24:08;94556.72;;;9.46;100.00
12785;BME280;6456;42.680;23.260;2023-04-23T00:26:35;94615.59;;;9.83;100.00
12785;BME280;6456;42.680;23.260;2023-04-23T00:29:02;94611.75;;;9.79;100.00
12785;BME280;6456;42.680;23.260;2023-04-23T00:31:29;94612.78;;;9.78;100.00
12785;BME280;6456;42.680;23.260;2023-04-23T00:33:57;94612.38;;;9.75;100.00
12785;BME280;6456;42.680;23.260;2023-04-23T00:36:24;94606.91;;;9.76;100.00
12785;BME280;6456;42.680;23.260;2023-04-23T00:38:51;94611.59;;;9.74;100.00
12785;BME280;6456;42.680;23.260;2023-04-23T00:41:18;94616.66;;;9.69;100.00
12785;BME280;6456;42.680;23.260;2023-04-23T00:43:45;94601.09;;;9.61;100.00
12785;BME280;6456;42.680;23.260;2023-04-23T00:46:13;94613.22;;;9.68;100.00
12785;BME280;6456;42.680;23.260;2023-04-23T00:48:41;94582.56;;;9.43;100.00
12785;BME280;6456;42.680;23.260;2023-04-23T00:51:10;94604.72;;;9.60;100.00
12785;BME280;6456;42.680;23.260;2023-04-23T00:53:37;94614.66;;;9.58;100.00
12785;BME280;6456;42.680;23.260;2023-04-23T00:56:04;94621.13;;;9.55;100.00
12785;BME280;6456;42.680;23.260;2023-04-23T00:58:33;94615.47;;;9.52;100.00
12785;BME280;6456;42.680;23.260;2023-04-23T01:01:00;94599.53;;;9.40;100.00
12785;BME280;6456;42.680;23.260;2023-04-23T01:03:29;94613.06;;;9.50;100.00
12785;BME280;6456;42.680;23.260;2023-04-23T01:05:57;94551.94;;;9.11;100.00
12785;BME280;6456;42.680;23.260;2023-04-23T01:08:26;94541.47;;;9.04;100.00
12785;BME280;6456;42.680;23.260;2023-04-23T01:10:54;94583.41;;;9.30;100.00
12785;BME280;6456;42.680;23.260;2023-04-23T01:13:21;94596.72;;;9.42;100.00
12785;BME280;6456;42.680;23.260;2023-04-23T01:15:51;94602.00;;;9.29;100.00
12785;BME280;6456;42.680;23.260;2023-04-23T01:18:18;94613.69;;;9.46;100.00
12785;BME280;6456;42.680;23.260;2023-04-23T01:20:45;94610.44;;;9.37;100.00
12785;BME280;6456;42.680;23.260;2023-04-23T01:23:14;94613.69;;;9.46;100.00
12785;BME280;6456;42.680;23.260;2023-04-23T01:25:41;94565.69;;;8.93;100.00
12785;BME280;6456;42.680;23.260;2023-04-23T01:28:08;94624.59;;;9.30;100.00
12785;BME280;6456;42.680;23.260;2023-04-23T01:30:36;94605.63;;;9.15;100.00
12785;BME280;6456;42.680;23.260;2023-04-23T01:33:04;94618.56;;;9.23;100.00
12785;BME280;6456;42.680;23.260;2023-04-23T01:35:32;94608.88;;;9.17;100.00
12785;BME280;6456;42.680;23.260;2023-04-23T01:38:02;94616.97;;;9.22;100.00
12785;BME280;6456;42.680;23.260;2023-04-23T01:40:30;94541.50;;;8.71;100.00
12785;BME280;6456;42.680;23.260;2023-04-23T01:42:57;94610.06;;;9.21;100.00
12785;BME280;6456;42.680;23.260;2023-04-23T01:45:24;94603.03;;;9.08;100.00
12785;BME280;6456;42.680;23.260;2023-04-23T01:47:51;94618.16;;;9.13;100.00
12785;BME280;6456;42.680;23.260;2023-04-23T01:50:18;94621.19;;;9.10;100.00
12785;BME280;6456;42.680;23.260;2023-04-23T01:52:47;94629.47;;;9.13;100.00
12785;BME280;6456;42.680;23.260;2023-04-23T01:55:14;94599.38;;;8.89;100.00
12785;BME280;6456;42.680;23.260;2023-04-23T01:57:45;94595.97;;;8.89;100.00
12785;BME280;6456;42.680;23.260;2023-04-23T02:00:13;94577.41;;;8.77;100.00
12785;BME280;6456;42.680;23.260;2023-04-23T02:02:42;94636.34;;;9.08;100.00
12785;BME280;6456;42.680;23.260;2023-04-23T02:05:10;94631.91;;;9.08;100.00
12785;BME280;6456;42.680;23.260;2023-04-23T02:07:38;94604.03;;;8.87;100.00
12785;BME280;6456;42.680;23.260;2023-04-23T02:10:06;94572.34;;;8.63;100.00
12785;BME280;6456;42.680;23.260;2023-04-23T02:12:33;94605.25;;;8.85;100.00
12785;BME280;6456;42.680;23.260;2023-04-23T02:15:02;94599.19;;;8.78;100.00
12785;BME280;6456;42.680;23.260;2023-04-23T02:17:29;94597.78;;;8.75;100.00
12785;BME280;6456;42.680;23.260;2023-04-23T02:19:56;94595.75;;;8.64;100.00
12785;BME280;6456;42.680;23.260;2023-04-23T02:22:23;94626.25;;;8.91;100.00
12785;BME280;6456;42.680;23.260;2023-04-23T02:24:51;94631.91;;;8.88;100.00
12785;BME280;6456;42.680;23.260;2023-04-23T02:27:18;94628.47;;;8.81;100.00
12785;BME280;6456;42.680;23.260;2023-04-23T02:29:45;94626.25;;;8.78;100.00
12785;BME280;6456;42.680;23.260;2023-04-23T02:32:14;94610.88;;;8.62;100.00
12785;BME280;6456;42.680;23.260;2023-04-23T02:34:41;94609.47;;;8.53;100.00
12785;BME280;6456;42.680;23.260;2023-04-23T02:37:08;94633.69;;;8.68;100.00
12785;BME280;6456;42.680;23.260;2023-04-23T02:39:34;94637.13;;;8.69;100.00
12785;BME280;6456;42.680;23.260;2023-04-23T02:42:03;94598.78;;;8.42;100.00
12785;BME280;6456;42.680;23.260;2023-04-23T02:44:30;94604.41;;;8.45;100.00
12785;BME280;6456;42.680;23.260;2023-04-23T02:46:57;94637.53;;;8.59;100.00
12785;BME280;6456;42.680;23.260;2023-04-23T02:49:25;94576.97;;;8.28;100.00
12785;BME280;6456;42.680;23.260;2023-04-23T02:51:52;94528.50;;;7.91;100.00
12785;BME280;6456;42.680;23.260;2023-04-23T02:54:19;94631.66;;;8.57;100.00
12785;BME280;6456;42.680;23.260;2023-04-23T02:56:46;94632.69;;;8.56;100.00
12785;BME280;6456;42.680;23.260;2023-04-23T02:59:13;94638.94;;;8.55;100.00
12785;BME280;6456;42.680;23.260;2023-04-23T03:01:40;94608.84;;;8.38;100.00
12785;BME280;6456;42.680;23.260;2023-04-23T03:04:07;94621.56;;;8.41;100.00
12785;BME280;6456;42.680;23.260;2023-04-23T03:06:36;94585.38;;;8.17;100.00
12785;BME280;6456;42.680;23.260;2023-04-23T03:09:03;94599.09;;;8.25;100.00
12785;BME280;6456;42.680;23.260;2023-04-23T03:11:30;94627.41;;;8.43;100.00
12785;BME280;6456;42.680;23.260;2023-04-23T03:13:57;94643.34;;;8.48;100.00
12785;BME280;6456;42.680;23.260;2023-04-23T03:16:27;94576.47;;;8.05;100.00
12785;BME280;6456;42.680;23.260;2023-04-23T03:18:55;94650.22;;;8.49;100.00
12785;BME280;6456;42.680;23.260;2023-04-23T03:21:22;94647.59;;;8.49;100.00
12785;BME280;6456;42.680;23.260;2023-04-23T03:23:50;94647.41;;;8.44;100.00
12785;BME280;6456;42.680;23.260;2023-04-23T03:26:17;94646.59;;;8.44;100.00
12785;BME280;6456;42.680;23.260;2023-04-23T03:28:44;94595.63;;;8.12;100.00
12785;BME280;6456;42.680;23.260;2023-04-23T03:31:11;94643.75;;;8.38;100.00
12785;BME280;6456;42.680;23.260;2023-04-23T03:33:38;94592.00;;;8.06;100.00
12785;BME280;6456;42.680;23.260;2023-04-23T03:36:05;94625.31;;;8.25;100.00
12785;BME280;6456;42.680;23.260;2023-04-23T03:38:32;94617.63;;;8.17;100.00
12785;BME280;6456;42.680;23.260;2023-04-23T03:41:00;94658.88;;;8.43;100.00
12785;BME280;6456;42.680;23.260;2023-04-23T03:43:27;94614.41;;;8.09;100.00
12785;BME280;6456;42.680;23.260;2023-04-23T03:45:54;94657.25;;;8.42;100.00
12785;BME280;6456;42.680;23.260;2023-04-23T03:48:21;94656.03;;;8.45;100.00
12785;BME280;6456;42.680;23.260;2023-04-23T03:50:48;94638.69;;;8.37;100.00
12785;BME280;6456;42.680;23.260;2023-04-23T03:53:15;94593.00;;;8.05;100.00
12785;BME280;6456;42.680;23.260;2023-04-23T03:55:43;94654.44;;;8.44;100.00
12785;BME280;6456;42.680;23.260;2023-04-23T03:58:11;94590.16;;;8.00;100.00
12785;BME280;6456;42.680;23.260;2023-04-23T04:00:38;94631.63;;;8.31;100.00
12785;BME280;6456;42.680;23.260;2023-04-23T04:03:05;94664.16;;;8.56;100.00
12785;BME280;6456;42.680;23.260;2023-04-23T04:05:32;94662.94;;;8.59;100.00
12785;BME280;6456;42.680;23.260;2023-04-23T04:07:59;94662.75;;;8.60;100.00
12785;BME280;6456;42.680;23.260;2023-04-23T04:10:27;94586.34;;;8.09;100.00
12785;BME280;6456;42.680;23.260;2023-04-23T04:12:54;94663.34;;;8.62;100.00
12785;BME280;6456;42.680;23.260;2023-04-23T04:15:22;94625.78;;;8.35;100.00
12785;BME280;6456;42.680;23.260;2023-04-23T04:17:49;94665.38;;;8.67;100.00
12785;BME280;6456;42.680;23.260;2023-04-23T04:20:16;94670.44;;;8.68;100.00
12785;BME280;6456;42.680;23.260;2023-04-23T04:22:43;94671.63;;;8.72;100.00
12785;BME280;6456;42.680;23.260;2023-04-23T04:25:11;94651.44;;;8.60;100.00
12785;BME280;6456;42.680;23.260;2023-04-23T04:27:38;94666.59;;;8.71;100.00
12785;BME280;6456;42.680;23.260;2023-04-23T04:30:07;94623.78;;;8.51;100.00
12785;BME280;6456;42.680;23.260;2023-04-23T04:32:35;94681.16;;;8.86;100.00
12785;BME280;6456;42.680;23.260;2023-04-23T04:35:04;94684.38;;;8.95;100.00
12785;BME280;6456;42.680;23.260;2023-04-23T04:37:31;94655.91;;;8.79;100.00
12785;BME280;6456;42.680;23.260;2023-04-23T04:39:58;94685.00;;;9.03;100.00
12785;BME280;6456;42.680;23.260;2023-04-23T04:42:25;94667.81;;;8.94;100.00
12785;BME280;6456;42.680;23.260;2023-04-23T04:44:52;94691.28;;;9.09;100.00
12785;BME280;6456;42.680;23.260;2023-04-23T04:47:19;94690.88;;;9.19;100.00
12785;BME280;6456;42.680;23.260;2023-04-23T04:49:47;94645.41;;;8.92;100.00
12785;BME280;6456;42.680;23.260;2023-04-23T04:52:14;94687.00;;;9.28;100.00
12785;BME280;6456;42.680;23.260;2023-04-23T04:54:41;94696.72;;;9.34;100.00
12785;BME280;6456;42.680;23.260;2023-04-23T04:57:08;94699.72;;;9.37;100.00
12785;BME280;6456;42.680;23.260;2023-04-23T04:59:35;94703.38;;;9.36;100.00
12785;BME280;6456;42.680;23.260;2023-04-23T05:02:05;94710.03;;;9.32;100.00
12785;BME280;6456;42.680;23.260;2023-04-23T05:04:34;94704.19;;;9.24;100.00
12785;BME280;6456;42.680;23.260;2023-04-23T05:07:02;94694.47;;;9.04;100.00
12785;BME280;6456;42.680;23.260;2023-04-23T05:12:42;94698.13;;;9.17;100.00
12785;BME280;6456;42.680;23.260;2023-04-23T05:15:11;94630.28;;;8.87;100.00
12785;BME280;6456;42.680;23.260;2023-04-23T05:17:39;94681.75;;;9.28;100.00
12785;BME280;6456;42.680;23.260;2023-04-23T05:20:07;94666.59;;;9.30;100.00
12785;BME280;6456;42.680;23.260;2023-04-23T05:22:36;94692.06;;;9.49;100.00
12785;BME280;6456;42.680;23.260;2023-04-23T05:25:04;94701.75;;;9.61;100.00
12785;BME280;6456;42.680;23.260;2023-04-23T05:27:31;94705.16;;;9.75;100.00
12785;BME280;6456;42.680;23.260;2023-04-23T05:29:58;94703.53;;;9.74;100.00
12785;BME280;6456;42.680;23.260;2023-04-23T05:32:25;94622.38;;;9.20;100.00
12785;BME280;6456;42.680;23.260;2023-04-23T05:34:52;94659.56;;;9.37;100.00
12785;BME280;6456;42.680;23.260;2023-04-23T05:37:20;94633.09;;;9.19;100.00
12785;BME280;6456;42.680;23.260;2023-04-23T05:39:48;94688.22;;;9.45;100.00
12785;BME280;6456;42.680;23.260;2023-04-23T05:42:15;94709.22;;;9.58;100.00
12785;BME280;6456;42.680;23.260;2023-04-23T05:44:44;94714.25;;;9.66;100.00
12785;BME280;6456;42.680;23.260;2023-04-23T05:47:12;94712.25;;;9.61;100.00
12785;BME280;6456;42.680;23.260;2023-04-23T05:49:40;94694.28;;;9.58;100.00
12785;BME280;6456;42.680;23.260;2023-04-23T05:52:06;94647.25;;;9.24;100.00
12785;BME280;6456;42.680;23.260;2023-04-23T05:54:33;94647.84;;;9.26;100.00
12785;BME280;6456;42.680;23.260;2023-04-23T05:57:02;94721.75;;;9.56;100.00
12785;BME280;6456;42.680;23.260;2023-04-23T05:59:30;94722.75;;;9.55;100.00
12785;BME280;6456;42.680;23.260;2023-04-23T06:01:57;94702.75;;;9.60;100.00
12785;BME280;6456;42.680;23.260;2023-04-23T06:04:23;94677.94;;;9.37;100.00
12785;BME280;6456;42.680;23.260;2023-04-23T06:06:51;94652.06;;;9.27;100.00
12785;BME280;6456;42.680;23.260;2023-04-23T06:09:18;94717.25;;;9.89;100.00
12785;BME280;6456;42.680;23.260;2023-04-23T06:11:44;94722.09;;;9.99;100.00
12785;BME280;6456;42.680;23.260;2023-04-23T06:14:12;94663.28;;;9.80;100.00
12785;BME280;6456;42.680;23.260;2023-04-23T06:16:42;94721.06;;;10.19;100.00
12785;BME280;6456;42.680;23.260;2023-04-23T06:19:10;94723.03;;;10.30;100.00
12785;BME280;6456;42.680;23.260;2023-04-23T06:21:37;94712.28;;;10.39;100.00
12785;BME280;6456;42.680;23.260;2023-04-23T06:24:04;94725.38;;;10.52;100.00
12785;BME280;6456;42.680;23.260;2023-04-23T06:26:37;94655.09;;;10.21;100.00
12785;BME280;6456;42.680;23.260;2023-04-23T06:29:04;94728.50;;;10.73;100.00
12785;BME280;6456;42.680;23.260;2023-04-23T06:31:32;94723.28;;;10.67;100.00
12785;BME280;6456;42.680;23.260;2023-04-23T06:34:00;94720.03;;;10.65;100.00
12785;BME280;6456;42.680;23.260;2023-04-23T06:36:27;94699.09;;;10.45;100.00
12785;BME280;6456;42.680;23.260;2023-04-23T06:38:53;94711.38;;;10.58;100.00
12785;BME280;6456;42.680;23.260;2023-04-23T06:41:20;94720.84;;;10.72;100.00
12785;BME280;6456;42.680;23.260;2023-04-23T06:43:47;94702.25;;;10.60;100.00
12785;BME280;6456;42.680;23.260;2023-04-23T06:46:14;94654.00;;;10.42;100.00
12785;BME280;6456;42.680;23.260;2023-04-23T06:48:42;94711.88;;;10.79;100.00
12785;BME280;6456;42.680;23.260;2023-04-23T06:51:11;94702.59;;;10.77;100.00
12785;BME280;6456;42.680;23.260;2023-04-23T06:53:38;94646.69;;;10.44;100.00
12785;BME280;6456;42.680;23.260;2023-04-23T06:56:05;94705.72;;;10.92;100.00
12785;BME280;6456;42.680;23.260;2023-04-23T06:58:33;94628.97;;;10.64;100.00
12785;BME280;6456;42.680;23.260;2023-04-23T07:01:00;94696.28;;;11.09;100.00
12785;BME280;6456;42.680;23.260;2023-04-23T07:03:28;94666.34;;;11.04;100.00
12785;BME280;6456;42.680;23.260;2023-04-23T07:05:57;94640.94;;;10.91;100.00
12785;BME280;6456;42.680;23.260;2023-04-23T07:08:24;94711.78;;;11.48;100.00
12785;BME280;6456;42.680;23.260;2023-04-23T07:10:50;94722.66;;;11.58;100.00
12785;BME280;6456;42.680;23.260;2023-04-23T07:13:17;94716.22;;;11.54;100.00
12785;BME280;6456;42.680;23.260;2023-04-23T07:15:44;94711.28;;;11.58;100.00
12785;BME280;6456;42.680;23.260;2023-04-23T07:18:13;94720.59;;;11.60;100.00
12785;BME280;6456;42.680;23.260;2023-04-23T07:20:40;94626.38;;;11.13;100.00
12785;BME280;6456;42.680;23.260;2023-04-23T07:23:08;94644.44;;;11.34;100.00
12785;BME280;6456;42.680;23.260;2023-04-23T07:25:35;94643.38;;;11.35;100.00
12785;BME280;6456;42.680;23.260;2023-04-23T07:28:02;94686.84;;;11.76;100.00
12785;BME280;6456;42.680;23.260;2023-04-23T07:30:29;94635.97;;;11.50;99.84
12785;BME280;6456;42.680;23.260;2023-04-23T07:32:56;94700.19;;;11.99;99.87
12785;BME280;6456;42.680;23.260;2023-04-23T07:35:23;94704.59;;;12.23;100.00
12785;BME280;6456;42.680;23.260;2023-04-23T07:37:51;94706.22;;;12.24;99.40
12785;BME280;6456;42.680;23.260;2023-04-23T07:40:22;94661.03;;;12.02;98.09
12785;BME280;6456;42.680;23.260;2023-04-23T07:42:50;94657.72;;;12.07;97.89
12785;BME280;6456;42.680;23.260;2023-04-23T07:45:17;94692.56;;;12.45;96.91
12785;BME280;6456;42.680;23.260;2023-04-23T07:47:44;94655.41;;;12.29;97.22
12785;BME280;6456;42.680;23.260;2023-04-23T07:50:11;94658.72;;;12.42;97.99
12785;BME280;6456;42.680;23.260;2023-04-23T07:52:38;94703.31;;;12.92;97.13
12785;BME280;6456;42.680;23.260;2023-04-23T07:55:06;94618.66;;;12.45;98.35
12785;BME280;6456;42.680;23.260;2023-04-23T07:57:35;94700.66;;;13.10;94.40
12785;BME280;6456;42.680;23.260;2023-04-23T08:00:02;94618.03;;;12.61;93.79
12785;BME280;6456;42.680;23.260;2023-04-23T08:02:29;94703.81;;;13.30;94.43
12785;BME280;6456;42.680;23.260;2023-04-23T08:04:56;94702.69;;;13.37;91.00
12785;BME280;6456;42.680;23.260;2023-04-23T08:07:23;94703.00;;;13.41;91.06
12785;BME280;6456;42.680;23.260;2023-04-23T08:09:49;94662.31;;;13.19;90.20
12785;BME280;6456;42.680;23.260;2023-04-23T08:12:17;94704.06;;;13.52;88.87
12785;BME280;6456;42.680;23.260;2023-04-23T08:14:45;94693.50;;;13.52;90.86
12785;BME280;6456;42.680;23.260;2023-04-23T08:17:12;94672.47;;;13.45;90.13
12785;BME280;6456;42.680;23.260;2023-04-23T08:19:39;94702.25;;;13.75;89.02
12785;BME280;6456;42.680;23.260;2023-04-23T08:22:06;94695.00;;;13.82;87.93
12785;BME280;6456;42.680;23.260;2023-04-23T08:24:33;94687.75;;;13.89;87.96
12785;BME280;6456;42.680;23.260;2023-04-23T08:26:59;94642.25;;;13.64;88.69
12785;BME280;6456;42.680;23.260;2023-04-23T08:29:27;94696.13;;;13.98;85.43
12785;BME280;6456;42.680;23.260;2023-04-23T08:31:55;94696.16;;;14.09;84.94
12785;BME280;6456;42.680;23.260;2023-04-23T08:34:22;94693.94;;;14.30;85.75
12785;BME280;6456;42.680;23.260;2023-04-23T08:36:49;94687.47;;;14.49;85.16
12785;BME280;6456;42.680;23.260;2023-04-23T08:39:15;94688.31;;;14.66;84.60
12785;BME280;6456;42.680;23.260;2023-04-23T08:41:44;94679.56;;;14.65;83.28
12785;BME280;6456;42.680;23.260;2023-04-23T08:44:17;94679.75;;;14.75;81.78
12785;BME280;6456;42.680;23.260;2023-04-23T08:46:45;94553.91;;;13.88;81.03
12785;BME280;6456;42.680;23.260;2023-04-23T08:49:15;94684.41;;;14.68;79.74
12785;BME280;6456;42.680;23.260;2023-04-23T08:51:48;94638.06;;;14.54;79.88
12785;BME280;6456;42.680;23.260;2023-04-23T08:54:20;94627.97;;;14.68;79.56
12785;BME280;6456;42.680;23.260;2023-04-23T08:56:48;94617.28;;;14.63;78.59
12785;BME280;6456;42.680;23.260;2023-04-23T08:59:17;94670.25;;;15.19;78.39
12785;BME280;6456;42.680;23.260;2023-04-23T09:01:45;94569.16;;;14.66;79.38
12785;BME280;6456;42.680;23.260;2023-04-23T09:04:14;94670.25;;;15.19;76.74
12785;BME280;6456;42.680;23.260;2023-04-23T09:06:44;94611.59;;;14.99;76.74
12785;BME280;6456;42.680;23.260;2023-04-23T09:09:11;94642.28;;;15.28;74.79
12785;BME280;6456;42.680;23.260;2023-04-23T09:11:41;94603.09;;;14.97;74.67
12785;BME280;6456;42.680;23.260;2023-04-23T09:14:08;94662.72;;;15.61;76.73
12785;BME280;6456;42.680;23.260;2023-04-23T09:16:35;94655.16;;;15.70;74.92
12785;BME280;6456;42.680;23.260;2023-04-23T09:19:06;94662.13;;;15.76;74.86
12785;BME280;6456;42.680;23.260;2023-04-23T09:21:38;94656.91;;;15.81;73.55
12785;BME280;6456;42.680;23.260;2023-04-23T09:24:07;94590.88;;;15.63;75.08
12785;BME280;6456;42.680;23.260;2023-04-23T09:26:43;94627.72;;;16.19;72.62
12785;BME280;6456;42.680;23.260;2023-04-23T09:29:12;94657.31;;;16.71;71.45
12785;BME280;6456;42.680;23.260;2023-04-23T09:31:44;94628.44;;;16.80;70.73
12785;BME280;6456;42.680;23.260;2023-04-23T09:34:13;94638.09;;;16.86;68.46
12785;BME280;6456;42.680;23.260;2023-04-23T09:36:43;94608.88;;;16.42;68.36
12785;BME280;6456;42.680;23.260;2023-04-23T09:39:11;94630.81;;;16.54;66.92
12785;BME280;6456;42.680;23.260;2023-04-23T09:41:38;94630.69;;;16.66;68.17
12785;BME280;6456;42.680;23.260;2023-04-23T09:44:05;94581.06;;;16.23;69.61
12785;BME280;6456;42.680;23.260;2023-04-23T09:46:34;94552.72;;;15.85;69.94
12785;BME280;6456;42.680;23.260;2023-04-23T09:49:02;94625.94;;;16.25;71.46
12785;BME280;6456;42.680;23.260;2023-04-23T09:51:32;94623.22;;;15.98;69.88
12785;BME280;6456;42.680;23.260;2023-04-23T09:54:00;94621.09;;;16.00;71.79
12785;BME280;6456;42.680;23.260;2023-04-23T09:56:29;94582.28;;;15.94;69.49
12785;BME280;6456;42.680;23.260;2023-04-23T09:58:55;94587.72;;;16.04;67.75
12785;BME280;6456;42.680;23.260;2023-04-23T10:01:27;94619.66;;;16.31;67.95
12785;BME280;6456;42.680;23.260;2023-04-23T10:03:54;94610.53;;;16.48;71.51
12785;BME280;6456;42.680;23.260;2023-04-23T10:06:27;94585.69;;;16.33;68.51
12785;BME280;6456;42.680;23.260;2023-04-23T10:08:56;94620.81;;;16.61;65.72
12785;BME280;6456;42.680;23.260;2023-04-23T10:11:24;94583.47;;;16.51;63.83
12785;BME280;6456;42.680;23.260;2023-04-23T10:13:52;94587.34;;;16.60;67.29
12785;BME280;6456;42.680;23.260;2023-04-23T10:16:20;94596.50;;;16.75;65.88
12785;BME280;6456;42.680;23.260;2023-04-23T10:18:50;94573.09;;;16.72;66.05
12785;BME280;6456;42.680;23.260;2023-04-23T10:21:19;94469.34;;;16.03;67.62
12785;BME280;6456;42.680;23.260;2023-04-23T10:23:46;94585.63;;;16.76;63.45
12785;BME280;6456;42.680;23.260;2023-04-23T10:26:15;94533.97;;;16.40;65.43
12785;BME280;6456;42.680;23.260;2023-04-23T10:28:46;94545.75;;;16.49;65.13
12785;BME280;6456;42.680;23.260;2023-04-23T10:31:14;94489.22;;;16.27;65.64
12785;BME280;6456;42.680;23.260;2023-04-23T10:33:41;94540.03;;;16.57;62.20
12785;BME280;6456;42.680;23.260;2023-04-23T10:36:10;94568.81;;;16.97;61.54
12785;BME280;6456;42.680;23.260;2023-04-23T10:38:38;94480.47;;;16.53;64.41
12785;BME280;6456;42.680;23.260;2023-04-23T10:41:06;94519.31;;;16.91;59.97
12785;BME280;6456;42.680;23.260;2023-04-23T10:43:34;94569.25;;;17.21;58.14
12785;BME280;6456;42.680;23.260;2023-04-23T10:46:03;94474.66;;;16.56;56.22
12785;BME280;6456;42.680;23.260;2023-04-23T10:48:50;94540.97;;;17.05;57.56
12785;BME280;6456;42.680;23.260;2023-04-23T10:51:17;94436.81;;;16.44;56.89
12785;BME280;6456;42.680;23.260;2023-04-23T10:53:44;94501.56;;;16.97;54.73
12785;BME280;6456;42.680;23.260;2023-04-23T10:56:11;94541.59;;;17.17;54.81
12785;BME280;6456;42.680;23.260;2023-04-23T10:58:47;94514.31;;;16.95;57.57
12785;BME280;6456;42.680;23.260;2023-04-23T11:01:17;94446.59;;;16.65;58.86
12785;BME280;6456;42.680;23.260;2023-04-23T11:03:45;94409.38;;;16.60;56.63
12785;BME280;6456;42.680;23.260;2023-04-23T11:06:13;94503.97;;;17.35;55.43
12785;BME280;6456;42.680;23.260;2023-04-23T11:08:50;94523.56;;;17.61;56.72
12785;BME280;6456;42.680;23.260;2023-04-23T11:11:18;94413.69;;;17.08;55.29
12785;BME280;6456;42.680;23.260;2023-04-23T11:13:50;94508.00;;;17.89;54.52
12785;BME280;6456;42.680;23.260;2023-04-23T11:16:22;94416.78;;;17.47;51.72
12785;BME280;6456;42.680;23.260;2023-04-23T11:18:57;94485.41;;;18.02;51.51
12785;BME280;6456;42.680;23.260;2023-04-23T11:21:58;94504.91;;;18.18;47.31
12785;BME280;6456;42.680;23.260;2023-04-23T11:24:33;94448.09;;;17.87;46.22
12785;BME280;6456;42.680;23.260;2023-04-23T11:27:04;94424.13;;;17.82;52.67
12785;BME280;6456;42.680;23.260;2023-04-23T11:29:32;94431.88;;;17.83;48.66
12785;BME280;6456;42.680;23.260;2023-04-23T11:32:00;94458.78;;;17.97;46.57
12785;BME280;6456;42.680;23.260;2023-04-23T11:34:30;94451.06;;;17.96;43.76
12785;BME280;6456;42.680;23.260;2023-04-23T11:36:58;94469.47;;;18.07;44.22
12785;BME280;6456;42.680;23.260;2023-04-23T11:39:25;94482.53;;;18.19;43.42
12785;BME280;6456;42.680;23.260;2023-04-23T11:41:52;94439.09;;;17.98;45.37
12785;BME280;6456;42.680;23.260;2023-04-23T11:44:20;94371.94;;;17.71;47.46
12785;BME280;6456;42.680;23.260;2023-04-23T11:46:47;94487.72;;;18.55;49.36
12785;BME280;6456;42.680;23.260;2023-04-23T11:49:17;94412.75;;;18.22;44.72
12785;BME280;6456;42.680;23.260;2023-04-23T11:51:45;94463.47;;;18.82;42.74
12785;BME280;6456;42.680;23.260;2023-04-23T11:54:12;94396.59;;;18.69;40.50
12785;BME280;6456;42.680;23.260;2023-04-23T11:56:40;94468.50;;;19.24;40.02
12785;BME280;6456;42.680;23.260;2023-04-23T11:59:07;94446.38;;;19.29;41.56
12785;BME280;6456;42.680;23.260;2023-04-23T12:01:44;94457.53;;;19.56;41.89
12785;BME280;6456;42.680;23.260;2023-04-23T12:04:12;94460.69;;;19.63;40.56
12785;BME280;6456;42.680;23.260;2023-04-23T12:06:42;94389.31;;;19.04;36.08
12785;BME280;6456;42.680;23.260;2023-04-23T12:09:10;94461.00;;;19.56;36.33
12785;BME280;6456;42.680;23.260;2023-04-23T12:11:38;94375.44;;;19.12;36.57
12785;BME280;6456;42.680;23.260;2023-04-23T12:14:06;94459.84;;;19.77;36.01
12785;BME280;6456;42.680;23.260;2023-04-23T12:16:36;94461.75;;;19.67;38.44
12785;BME280;6456;42.680;23.260;2023-04-23T12:19:03;94367.16;;;19.09;39.12
12785;BME280;6456;42.680;23.260;2023-04-23T12:21:30;94342.91;;;19.15;38.89
12785;BME280;6456;42.680;23.260;2023-04-23T12:24:02;94340.22;;;19.20;36.18
12785;BME280;6456;42.680;23.260;2023-04-23T12:26:29;94371.66;;;19.44;35.06
12785;BME280;6456;42.680;23.260;2023-04-23T12:28:58;94439.19;;;20.03;34.83
12785;BME280;6456;42.680;23.260;2023-04-23T12:31:27;94443.84;;;20.36;37.96
12785;BME280;6456;42.680;23.260;2023-04-23T12:34:01;94390.84;;;20.00;34.13
12785;BME280;6456;42.680;23.260;2023-04-23T12:36:28;94412.91;;;20.25;32.87
12785;BME280;6456;42.680;23.260;2023-04-23T12:39:22;94374.00;;;19.99;33.57
12785;BME280;6456;42.680;23.260;2023-04-23T12:41:50;94364.25;;;19.79;33.84
12785;BME280;6456;42.680;23.260;2023-04-23T12:44:18;94437.50;;;20.17;32.16
12785;BME280;6456;42.680;23.260;2023-04-23T12:46:49;94430.16;;;19.89;33.20
12785;BME280;6456;42.680;23.260;2023-04-23T12:49:16;94426.53;;;19.65;34.01
12785;BME280;6456;42.680;23.260;2023-04-23T12:51:44;94440.94;;;19.69;34.00
12785;BME280;6456;42.680;23.260;2023-04-23T12:54:18;94341.59;;;19.08;34.13
12785;BME280;6456;42.680;23.260;2023-04-23T12:56:46;94406.56;;;19.52;34.59
12785;BME280;6456;42.680;23.260;2023-04-23T12:59:13;94428.84;;;19.81;34.52
12785;BME280;6456;42.680;23.260;2023-04-23T13:01:40;94423.25;;;19.83;33.84
12785;BME280;6456;42.680;23.260;2023-04-23T13:04:07;94393.91;;;19.78;34.08
12785;BME280;6456;42.680;23.260;2023-04-23T13:06:34;94429.25;;;20.14;34.30
12785;BME280;6456;42.680;23.260;2023-04-23T13:09:00;94424.09;;;20.22;33.71